createdAt,value
2023-01-30T00:00:38.941Z,1013.35
2023-01-30T00:01:38.715Z,1013.29
2023-01-30T00:02:38.705Z,1013.34
2023-01-30T00:03:38.824Z,1013.32
2023-01-30T00:04:39.003Z,1013.24
2023-01-30T00:05:38.637Z,1013.09
2023-01-30T00:06:38.610Z,1013.15
2023-01-30T00:07:38.642Z,1013.20
2023-01-30T00:08:38.676Z,1013.14
2023-01-30T00:09:38.591Z,1013.18
2023-01-30T00:10:38.545Z,1013.03
2023-01-30T00:11:38.564Z,1012.91
2023-01-30T00:12:38.533Z,1012.95
2023-01-30T00:13:42.620Z,1013.07
2023-01-30T00:14:38.645Z,1013.03
2023-01-30T00:15:38.508Z,1013.11
2023-01-30T00:16:38.554Z,1012.97
2023-01-30T00:17:38.477Z,1013.13
2023-01-30T00:18:39.229Z,1013.20
2023-01-30T00:19:42.316Z,1013.04
2023-01-30T00:20:38.547Z,1012.98
2023-01-30T00:21:40.185Z,1012.96
2023-01-30T00:22:39.668Z,1012.88
2023-01-30T00:23:38.412Z,1012.85
2023-01-30T00:24:42.370Z,1013.14
2023-01-30T00:25:38.475Z,1012.95
2023-01-30T00:26:38.470Z,1013.02
2023-01-30T00:27:38.340Z,1013.01
2023-01-30T00:28:38.339Z,1012.88
2023-01-30T00:29:38.320Z,1012.95
2023-01-30T00:30:38.314Z,1013.07
2023-01-30T00:31:38.312Z,1013.11
2023-01-30T00:32:39.172Z,1012.99
2023-01-30T00:33:38.265Z,1012.98
2023-01-30T00:34:38.252Z,1012.96
2023-01-30T00:35:38.501Z,1012.91
2023-01-30T00:36:38.241Z,1012.96
2023-01-30T00:37:38.233Z,1013.01
2023-01-30T00:38:38.305Z,1012.92
2023-01-30T00:39:41.927Z,1012.88
2023-01-30T00:40:39.192Z,1012.78
2023-01-30T00:41:38.174Z,1012.92
2023-01-30T00:42:38.160Z,1012.84
2023-01-30T00:43:41.781Z,1012.83
2023-01-30T00:44:38.166Z,1012.73
2023-01-30T00:45:39.075Z,1012.68
2023-01-30T00:46:38.391Z,1012.65
2023-01-30T00:47:38.098Z,1012.59
2023-01-30T00:48:41.816Z,1012.46
2023-01-30T00:49:38.079Z,1012.55
2023-01-30T00:50:38.097Z,1012.55
2023-01-30T00:51:38.070Z,1012.42
2023-01-30T00:52:38.060Z,1012.61
2023-01-30T00:53:38.038Z,1012.49
2023-01-30T00:54:38.036Z,1012.38
2023-01-30T00:55:38.668Z,1012.34
2023-01-30T00:56:38.116Z,1012.19
2023-01-30T00:57:37.973Z,1012.20
2023-01-30T00:58:37.985Z,1012.20
2023-01-30T00:59:37.962Z,1012.14
2023-01-30T01:00:38.219Z,1012.00
2023-01-30T01:01:38.024Z,1011.98
2023-01-30T01:02:38.635Z,1011.84
2023-01-30T01:03:41.674Z,1011.85
2023-01-30T01:04:37.909Z,1011.87
2023-01-30T01:05:37.877Z,1011.84
2023-01-30T01:06:41.640Z,1011.77
2023-01-30T01:07:38.640Z,1011.82
2023-01-30T01:08:38.815Z,1011.85
2023-01-30T01:09:37.845Z,1011.93
2023-01-30T01:10:37.812Z,1011.94
2023-01-30T01:11:37.816Z,1011.76
2023-01-30T01:12:37.782Z,1011.84
2023-01-30T01:13:37.792Z,1011.78
2023-01-30T01:14:49.321Z,1011.77
2023-01-30T01:15:38.571Z,1011.67
2023-01-30T01:16:37.778Z,1011.82
2023-01-30T01:17:37.725Z,1011.77
2023-01-30T01:18:37.716Z,1011.63
2023-01-30T01:19:37.695Z,1011.69
2023-01-30T01:20:37.834Z,1011.69
2023-01-30T01:21:40.290Z,1011.78
2023-01-30T01:22:37.677Z,1011.78
2023-01-30T01:23:37.656Z,1011.80
2023-01-30T01:24:38.411Z,1011.65
2023-01-30T01:25:38.420Z,1011.82
2023-01-30T01:26:37.756Z,1011.66
2023-01-30T01:27:37.598Z,1011.58
2023-01-30T01:28:37.590Z,1011.57
2023-01-30T01:29:37.567Z,1011.67
2023-01-30T01:30:37.617Z,1011.61
2023-01-30T01:31:37.609Z,1011.74
2023-01-30T01:32:37.597Z,1011.76
2023-01-30T01:33:38.282Z,1011.79
2023-01-30T01:34:38.451Z,1011.63
2023-01-30T01:35:37.508Z,1011.40
2023-01-30T01:36:54.174Z,1011.59
2023-01-30T01:37:38.660Z,1011.63
2023-01-30T01:38:37.480Z,1011.61
2023-01-30T01:39:41.280Z,1011.43
2023-01-30T01:40:37.453Z,1011.43
2023-01-30T01:41:38.104Z,1011.31
2023-01-30T01:42:37.411Z,1011.38
2023-01-30T01:43:37.463Z,1011.37
2023-01-30T01:44:41.311Z,1011.14
2023-01-30T01:45:37.403Z,1011.17
2023-01-30T01:46:37.374Z,1011.17
2023-01-30T01:47:38.038Z,1011.27
2023-01-30T01:48:37.337Z,1011.33
2023-01-30T01:49:38.050Z,1011.20
2023-01-30T01:50:37.321Z,1011.12
2023-01-30T01:51:37.306Z,1011.15
2023-01-30T01:52:37.284Z,1011.09
2023-01-30T01:53:37.267Z,1011.12
2023-01-30T01:54:37.406Z,1010.94
2023-01-30T01:55:38.055Z,1011.04
2023-01-30T01:56:48.865Z,1011.10
2023-01-30T01:57:37.222Z,1011.02
2023-01-30T01:58:37.224Z,1010.95
2023-01-30T01:59:37.213Z,1011.04
2023-01-30T02:00:49.011Z,1010.87
2023-01-30T02:01:37.199Z,1010.94
2023-01-30T02:02:41.475Z,1010.95
2023-01-30T02:03:37.916Z,1010.91
2023-01-30T02:04:38.119Z,1010.94
2023-01-30T02:05:37.135Z,1010.98
2023-01-30T02:06:37.788Z,1010.74
2023-01-30T02:07:37.369Z,1010.81
2023-01-30T02:08:37.105Z,1010.97
2023-01-30T02:09:37.079Z,1010.78
2023-01-30T02:10:37.757Z,1011.03
2023-01-30T02:11:37.081Z,1010.91
2023-01-30T02:12:37.162Z,1010.95
2023-01-30T02:13:40.831Z,1011.00
2023-01-30T02:14:37.692Z,1011.02
2023-01-30T02:15:37.032Z,1010.97
2023-01-30T02:16:37.006Z,1010.95
2023-01-30T02:17:38.770Z,1010.85
2023-01-30T02:18:37.033Z,1010.72
2023-01-30T02:19:36.944Z,1010.62
2023-01-30T02:20:40.672Z,1010.78
2023-01-30T02:21:36.934Z,1010.80
2023-01-30T02:22:36.948Z,1010.85
2023-01-30T02:23:37.648Z,1010.89
2023-01-30T02:24:36.945Z,1010.82
2023-01-30T02:25:41.723Z,1010.70
2023-01-30T02:26:40.622Z,1010.80
2023-01-30T02:27:38.104Z,1010.85
2023-01-30T02:28:36.844Z,1010.89
2023-01-30T02:29:49.795Z,1010.84
2023-01-30T02:30:36.993Z,1010.89
2023-01-30T02:31:36.967Z,1010.81
2023-01-30T02:32:36.821Z,1010.78
2023-01-30T02:33:36.785Z,1010.87
2023-01-30T02:34:40.605Z,1010.91
2023-01-30T02:35:36.756Z,1010.88
2023-01-30T02:36:37.053Z,1010.85
2023-01-30T02:37:37.708Z,1010.73
2023-01-30T02:38:36.994Z,1010.77
2023-01-30T02:39:40.637Z,1010.72
2023-01-30T02:40:37.647Z,1010.63
2023-01-30T02:41:37.485Z,1010.64
2023-01-30T02:42:40.610Z,1010.58
2023-01-30T02:43:36.667Z,1010.41
2023-01-30T02:44:36.661Z,1010.46
2023-01-30T02:45:36.627Z,1010.48
2023-01-30T02:46:36.618Z,1010.34
2023-01-30T02:47:36.625Z,1010.45
2023-01-30T02:48:40.539Z,1010.54
2023-01-30T02:49:36.837Z,1010.47
2023-01-30T02:50:36.587Z,1010.42
2023-01-30T02:51:36.570Z,1010.22
2023-01-30T02:52:36.546Z,1010.21
2023-01-30T02:53:36.530Z,1010.25
2023-01-30T02:54:36.594Z,1010.31
2023-01-30T02:55:37.462Z,1010.28
2023-01-30T02:56:36.493Z,1010.22
2023-01-30T02:57:36.522Z,1010.20
2023-01-30T02:58:36.491Z,1010.25
2023-01-30T02:59:37.142Z,1010.26
2023-01-30T03:00:36.624Z,1010.25
2023-01-30T03:01:38.230Z,1010.20
2023-01-30T03:02:36.454Z,1010.28
2023-01-30T03:03:36.405Z,1010.28
2023-01-30T03:04:36.397Z,1010.19
2023-01-30T03:05:37.132Z,1010.05
2023-01-30T03:06:48.037Z,1010.15
2023-01-30T03:07:36.639Z,1010.15
2023-01-30T03:08:36.377Z,1010.11
2023-01-30T03:09:36.357Z,1010.18
2023-01-30T03:10:48.925Z,1010.34
2023-01-30T03:11:37.263Z,1010.18
2023-01-30T03:12:41.819Z,1010.14
2023-01-30T03:13:36.610Z,1010.07
2023-01-30T03:14:36.269Z,1010.05
2023-01-30T03:15:36.259Z,1010.07
2023-01-30T03:16:36.248Z,1009.88
2023-01-30T03:17:37.960Z,1009.89
2023-01-30T03:18:37.000Z,1009.86
2023-01-30T03:19:36.203Z,1009.91
2023-01-30T03:20:36.191Z,1009.85
2023-01-30T03:21:36.191Z,1009.83
2023-01-30T03:22:37.869Z,1009.79
2023-01-30T03:23:38.101Z,1009.83
2023-01-30T03:24:37.763Z,1009.80
2023-01-30T03:25:36.121Z,1009.90
2023-01-30T03:26:36.417Z,1009.71
2023-01-30T03:27:36.373Z,1009.76
2023-01-30T03:28:36.144Z,1009.74
2023-01-30T03:29:39.950Z,1009.69
2023-01-30T03:30:36.195Z,1009.78
2023-01-30T03:31:36.191Z,1009.75
2023-01-30T03:32:36.063Z,1009.72
2023-01-30T03:33:36.034Z,1009.65
2023-01-30T03:34:36.031Z,1009.69
2023-01-30T03:35:36.015Z,1009.77
2023-01-30T03:36:36.028Z,1009.73
2023-01-30T03:37:36.028Z,1009.75
2023-01-30T03:38:35.968Z,1009.54
2023-01-30T03:39:39.744Z,1009.68
2023-01-30T03:40:35.948Z,1009.61
2023-01-30T03:41:35.936Z,1009.76
2023-01-30T03:42:36.119Z,1009.66
2023-01-30T03:43:35.907Z,1009.62
2023-01-30T03:44:39.777Z,1009.40
2023-01-30T03:45:36.157Z,1009.61
2023-01-30T03:46:39.837Z,1009.49
2023-01-30T03:47:35.860Z,1009.51
2023-01-30T03:48:35.898Z,1009.46
2023-01-30T03:49:37.497Z,1009.52
2023-01-30T03:50:35.844Z,1009.56
2023-01-30T03:51:36.077Z,1009.58
2023-01-30T03:52:39.772Z,1009.59
2023-01-30T03:53:36.461Z,1009.43
2023-01-30T03:54:35.839Z,1009.58
2023-01-30T03:55:36.520Z,1009.50
2023-01-30T03:56:35.751Z,1009.44
2023-01-30T03:57:35.735Z,1009.45
2023-01-30T03:58:35.730Z,1009.27
2023-01-30T03:59:35.955Z,1009.19
2023-01-30T04:00:35.743Z,1009.44
2023-01-30T04:01:37.224Z,1009.42
2023-01-30T04:02:35.946Z,1009.67
2023-01-30T04:03:35.665Z,1009.63
2023-01-30T04:04:35.650Z,1009.60
2023-01-30T04:05:35.940Z,1009.59
2023-01-30T04:06:36.639Z,1009.48
2023-01-30T04:07:36.552Z,1009.50
2023-01-30T04:08:39.519Z,1009.58
2023-01-30T04:09:35.843Z,1009.44
2023-01-30T04:10:35.577Z,1009.53
2023-01-30T04:11:35.567Z,1009.34
2023-01-30T04:12:35.895Z,1009.49
2023-01-30T04:13:39.294Z,1009.40
2023-01-30T04:14:35.527Z,1009.36
2023-01-30T04:15:39.355Z,1009.37
2023-01-30T04:16:36.379Z,1009.32
2023-01-30T04:17:35.990Z,1009.27
2023-01-30T04:18:39.332Z,1009.33
2023-01-30T04:19:35.453Z,1009.43
2023-01-30T04:20:36.125Z,1009.52
2023-01-30T04:21:35.446Z,1009.45
2023-01-30T04:22:36.182Z,1009.42
2023-01-30T04:23:35.412Z,1009.31
2023-01-30T04:24:35.433Z,1009.37
2023-01-30T04:25:35.380Z,1009.46
2023-01-30T04:26:35.437Z,1009.40
2023-01-30T04:27:35.367Z,1009.42
2023-01-30T04:28:35.353Z,1009.47
2023-01-30T04:29:35.345Z,1009.54
2023-01-30T04:30:35.373Z,1009.55
2023-01-30T04:31:35.348Z,1009.51
2023-01-30T04:32:38.898Z,1009.47
2023-01-30T04:33:35.293Z,1009.44
2023-01-30T04:34:39.088Z,1009.42
2023-01-30T04:35:35.254Z,1009.47
2023-01-30T04:36:35.275Z,1009.30
2023-01-30T04:37:35.237Z,1009.36
2023-01-30T04:38:35.216Z,1009.40
2023-01-30T04:39:35.495Z,1009.44
2023-01-30T04:40:35.195Z,1009.42
2023-01-30T04:41:35.184Z,1009.39
2023-01-30T04:42:35.214Z,1009.41
2023-01-30T04:43:35.173Z,1009.30
2023-01-30T04:44:39.146Z,1009.37
2023-01-30T04:45:35.833Z,1009.40
2023-01-30T04:46:35.130Z,1009.36
2023-01-30T04:47:35.880Z,1009.37
2023-01-30T04:48:35.115Z,1009.35
2023-01-30T04:49:36.094Z,1009.43
2023-01-30T04:50:35.359Z,1009.47
2023-01-30T04:51:38.724Z,1009.39
2023-01-30T04:52:35.056Z,1009.39
2023-01-30T04:53:38.784Z,1009.39
2023-01-30T04:54:35.066Z,1009.40
2023-01-30T04:55:35.022Z,1009.35
2023-01-30T04:56:35.008Z,1009.50
2023-01-30T04:57:35.068Z,1009.33
2023-01-30T04:58:34.971Z,1009.39
2023-01-30T04:59:34.961Z,1009.43
2023-01-30T05:00:35.089Z,1009.33
2023-01-30T05:01:38.849Z,1009.45
2023-01-30T05:02:35.692Z,1009.34
2023-01-30T05:03:34.963Z,1009.30
2023-01-30T05:04:34.911Z,1009.36
2023-01-30T05:05:34.900Z,1009.43
2023-01-30T05:06:34.995Z,1009.38
2023-01-30T05:07:34.887Z,1009.32
2023-01-30T05:08:34.863Z,1009.36
2023-01-30T05:09:34.861Z,1009.34
2023-01-30T05:10:34.960Z,1009.43
2023-01-30T05:11:35.586Z,1009.33
2023-01-30T05:12:34.937Z,1009.52
2023-01-30T05:13:34.945Z,1009.40
2023-01-30T05:14:34.959Z,1009.31
2023-01-30T05:15:34.768Z,1009.42
2023-01-30T05:16:35.247Z,1009.29
2023-01-30T05:17:35.536Z,1009.32
2023-01-30T05:18:35.028Z,1009.20
2023-01-30T05:19:38.869Z,1009.16
2023-01-30T05:20:35.472Z,1009.35
2023-01-30T05:21:34.695Z,1009.31
2023-01-30T05:22:34.678Z,1009.30
2023-01-30T05:23:34.668Z,1009.34
2023-01-30T05:24:34.949Z,1009.36
2023-01-30T05:25:34.641Z,1009.27
2023-01-30T05:26:34.687Z,1009.35
2023-01-30T05:27:34.909Z,1009.33
2023-01-30T05:28:34.599Z,1009.21
2023-01-30T05:29:34.862Z,1009.28
2023-01-30T05:30:34.661Z,1009.27
2023-01-30T05:31:34.860Z,1009.40
2023-01-30T05:32:34.559Z,1009.31
2023-01-30T05:33:34.556Z,1009.35
2023-01-30T05:34:34.532Z,1009.40
2023-01-30T05:35:34.534Z,1009.38
2023-01-30T05:36:34.655Z,1009.41
2023-01-30T05:37:34.501Z,1009.40
2023-01-30T05:38:34.488Z,1009.38
2023-01-30T05:39:34.476Z,1009.42
2023-01-30T05:40:34.481Z,1009.44
2023-01-30T05:41:34.445Z,1009.43
2023-01-30T05:42:38.423Z,1009.51
2023-01-30T05:43:34.433Z,1009.42
2023-01-30T05:44:34.403Z,1009.27
2023-01-30T05:45:34.671Z,1009.29
2023-01-30T05:46:34.400Z,1009.38
2023-01-30T05:47:34.385Z,1009.40
2023-01-30T05:48:34.455Z,1009.39
2023-01-30T05:49:34.372Z,1009.25
2023-01-30T05:50:34.378Z,1009.27
2023-01-30T05:51:34.335Z,1009.38
2023-01-30T05:52:34.305Z,1009.31
2023-01-30T05:53:34.303Z,1009.29
2023-01-30T05:54:34.316Z,1009.23
2023-01-30T05:55:34.276Z,1009.24
2023-01-30T05:56:34.258Z,1009.26
2023-01-30T05:57:34.257Z,1009.30
2023-01-30T05:58:35.464Z,1009.23
2023-01-30T05:59:34.229Z,1009.32
2023-01-30T06:00:34.535Z,1009.30
2023-01-30T06:01:34.208Z,1009.23
2023-01-30T06:02:34.382Z,1009.31
2023-01-30T06:03:36.004Z,1009.27
2023-01-30T06:04:35.353Z,1009.31
2023-01-30T06:05:34.170Z,1009.41
2023-01-30T06:06:34.898Z,1009.37
2023-01-30T06:07:34.146Z,1009.41
2023-01-30T06:08:34.821Z,1009.38
2023-01-30T06:09:34.128Z,1009.43
2023-01-30T06:10:34.111Z,1009.55
2023-01-30T06:11:34.081Z,1009.39
2023-01-30T06:12:34.732Z,1009.44
2023-01-30T06:13:34.052Z,1009.47
2023-01-30T06:14:34.051Z,1009.39
2023-01-30T06:15:34.064Z,1009.45
2023-01-30T06:16:34.067Z,1009.41
2023-01-30T06:17:38.151Z,1009.40
2023-01-30T06:18:34.045Z,1009.46
2023-01-30T06:19:33.979Z,1009.47
2023-01-30T06:20:33.964Z,1009.43
2023-01-30T06:21:34.000Z,1009.45
2023-01-30T06:22:33.996Z,1009.49
2023-01-30T06:23:33.930Z,1009.44
2023-01-30T06:24:34.035Z,1009.51
2023-01-30T06:25:33.951Z,1009.48
2023-01-30T06:26:34.170Z,1009.42
2023-01-30T06:27:33.879Z,1009.48
2023-01-30T06:28:33.881Z,1009.51
2023-01-30T06:29:33.862Z,1009.60
2023-01-30T06:30:33.895Z,1009.54
2023-01-30T06:31:33.989Z,1009.57
2023-01-30T06:32:33.823Z,1009.65
2023-01-30T06:33:33.817Z,1009.57
2023-01-30T06:34:33.841Z,1009.60
2023-01-30T06:35:37.962Z,1009.61
2023-01-30T06:36:55.809Z,1009.72
2023-01-30T06:37:34.288Z,1009.69
2023-01-30T06:38:33.750Z,1009.73
2023-01-30T06:39:33.761Z,1009.73
2023-01-30T06:40:33.727Z,1009.69
2023-01-30T06:41:33.713Z,1009.84
2023-01-30T06:42:33.740Z,1009.83
2023-01-30T06:43:33.679Z,1009.81
2023-01-30T06:44:33.914Z,1009.82
2023-01-30T06:45:33.651Z,1009.83
2023-01-30T06:46:34.317Z,1009.90
2023-01-30T06:47:33.643Z,1009.93
2023-01-30T06:48:34.039Z,1009.80
2023-01-30T06:49:33.621Z,1009.91
2023-01-30T06:50:33.611Z,1009.88
2023-01-30T06:51:33.859Z,1010.05
2023-01-30T06:52:33.625Z,1009.99
2023-01-30T06:53:34.395Z,1009.97
2023-01-30T06:54:34.097Z,1009.93
2023-01-30T06:55:34.219Z,1009.91
2023-01-30T06:56:33.525Z,1010.02
2023-01-30T06:57:34.041Z,1009.96
2023-01-30T06:58:38.304Z,1010.02
2023-01-30T06:59:33.517Z,1009.98
2023-01-30T07:00:34.305Z,1009.87
2023-01-30T07:01:34.436Z,1009.97
2023-01-30T07:02:33.554Z,1009.98
2023-01-30T07:03:33.817Z,1009.95
2023-01-30T07:04:33.436Z,1009.92
2023-01-30T07:05:33.437Z,1009.97
2023-01-30T07:06:33.726Z,1009.93
2023-01-30T07:07:33.679Z,1010.00
2023-01-30T07:08:33.407Z,1010.03
2023-01-30T07:09:33.817Z,1010.01
2023-01-30T07:10:33.351Z,1009.95
2023-01-30T07:11:34.053Z,1010.01
2023-01-30T07:12:33.482Z,1010.03
2023-01-30T07:13:34.091Z,1010.04
2023-01-30T07:14:33.703Z,1010.13
2023-01-30T07:15:33.611Z,1010.05
2023-01-30T07:16:33.316Z,1010.00
2023-01-30T07:17:33.620Z,1010.06
2023-01-30T07:18:33.666Z,1010.12
2023-01-30T07:19:34.782Z,1010.07
2023-01-30T07:20:34.016Z,1010.13
2023-01-30T07:21:34.264Z,1010.10
2023-01-30T07:22:41.159Z,1010.11
2023-01-30T07:23:46.172Z,1010.10
2023-01-30T07:24:36.483Z,1010.22
2023-01-30T07:25:35.167Z,1010.35
2023-01-30T07:26:35.364Z,1010.26
2023-01-30T07:28:00.223Z,1010.32
2023-01-30T07:28:35.726Z,1010.28
2023-01-30T07:29:40.034Z,1010.38
2023-01-30T07:30:37.996Z,1010.28
2023-01-30T07:31:35.550Z,1010.30
2023-01-30T07:32:35.719Z,1010.29
2023-01-30T07:33:44.742Z,1010.34
2023-01-30T07:34:55.844Z,1010.37
2023-01-30T07:35:33.887Z,1010.40
2023-01-30T07:36:54.642Z,1010.37
2023-01-30T07:37:36.743Z,1010.32
2023-01-30T07:39:25.630Z,1010.28
2023-01-30T07:40:26.706Z,1010.39
2023-01-30T07:41:29.333Z,1010.37
2023-01-30T07:42:38.436Z,1010.25
2023-01-30T07:43:27.499Z,1010.26
2023-01-30T07:44:28.394Z,1010.30
2023-01-30T07:45:51.413Z,1010.22
2023-01-30T07:46:33.405Z,1010.44
2023-01-30T07:47:29.635Z,1010.36
2023-01-30T07:48:30.427Z,1010.27
2023-01-30T07:49:28.245Z,1010.40
2023-01-30T07:50:28.975Z,1010.38
2023-01-30T07:51:30.310Z,1010.36
2023-01-30T07:52:29.188Z,1010.30
2023-01-30T07:53:52.579Z,1010.39
2023-01-30T07:54:29.340Z,1010.47
2023-01-30T07:55:41.261Z,1010.38
2023-01-30T07:56:26.251Z,1010.47
2023-01-30T07:57:49.975Z,1010.65
2023-01-30T07:58:30.893Z,1010.41
2023-01-30T07:59:30.125Z,1010.38
2023-01-30T08:00:27.484Z,1010.36
2023-01-30T08:01:26.241Z,1010.44
2023-01-30T08:02:27.493Z,1010.38
2023-01-30T08:03:25.726Z,1010.30
2023-01-30T08:04:29.752Z,1010.41
2023-01-30T08:05:27.062Z,1010.39
2023-01-30T08:06:47.199Z,1010.45
2023-01-30T08:07:26.139Z,1010.25
2023-01-30T08:08:25.050Z,1010.23
2023-01-30T08:09:26.431Z,1010.22
2023-01-30T08:10:27.723Z,1010.30
2023-01-30T08:11:28.261Z,1010.34
2023-01-30T08:12:25.814Z,1010.31
2023-01-30T08:13:25.823Z,1010.34
2023-01-30T08:14:26.516Z,1010.39
2023-01-30T08:15:27.187Z,1010.32
2023-01-30T08:16:30.459Z,1010.35
2023-01-30T08:17:26.955Z,1010.26
2023-01-30T08:18:26.272Z,1010.25
2023-01-30T08:19:33.128Z,1010.27
2023-01-30T08:20:26.267Z,1010.33
2023-01-30T08:21:47.568Z,1010.35
2023-01-30T08:22:26.414Z,1010.33
2023-01-30T08:24:21.707Z,1010.37
2023-01-30T08:25:23.173Z,1010.45
2023-01-30T08:26:25.997Z,1010.45
2023-01-30T08:27:26.888Z,1010.51
2023-01-30T08:28:23.589Z,1010.53
2023-01-30T08:29:26.421Z,1010.50
2023-01-30T08:30:28.105Z,1010.55
2023-01-30T08:31:28.852Z,1010.60
2023-01-30T08:32:45.791Z,1010.52
2023-01-30T08:33:55.369Z,1010.47
2023-01-30T08:34:25.849Z,1010.42
2023-01-30T08:36:30.345Z,1010.52
2023-01-30T08:37:22.105Z,1010.53
2023-01-30T08:38:23.234Z,1010.50
2023-01-30T08:39:29.403Z,1010.60
2023-01-30T08:40:24.325Z,1010.51
2023-01-30T08:41:35.136Z,1010.64
2023-01-30T08:42:25.895Z,1010.53
2023-01-30T08:43:23.578Z,1010.54
2023-01-30T08:44:24.616Z,1010.44
2023-01-30T08:45:22.052Z,1010.56
2023-01-30T08:46:23.084Z,1010.58
2023-01-30T08:47:22.676Z,1010.45
2023-01-30T08:49:34.311Z,1010.49
2023-01-30T08:50:33.525Z,1010.40
2023-01-30T08:51:33.932Z,1010.42
2023-01-30T08:52:45.657Z,1010.44
2023-01-30T08:53:40.840Z,1010.43
2023-01-30T08:54:42.784Z,1010.47
2023-01-30T08:55:34.922Z,1010.31
2023-01-30T08:56:35.361Z,1010.42
2023-01-30T08:57:45.681Z,1010.36
2023-01-30T08:58:42.727Z,1010.34
2023-01-30T09:00:01.460Z,1010.42
2023-01-30T09:00:39.039Z,1010.39
2023-01-30T09:01:39.854Z,1010.38
2023-01-30T09:02:38.523Z,1010.32
2023-01-30T09:03:34.562Z,1010.27
2023-01-30T09:04:33.705Z,1010.38
2023-01-30T09:05:35.429Z,1010.54
2023-01-30T09:06:46.172Z,1010.47
2023-01-30T09:07:37.459Z,1010.30
2023-01-30T09:08:41.038Z,1010.45
2023-01-30T09:09:33.650Z,1010.45
2023-01-30T09:10:38.705Z,1010.53
2023-01-30T09:11:55.906Z,1010.53
2023-01-30T09:12:35.099Z,1010.40
2023-01-30T09:13:34.100Z,1010.57
2023-01-30T09:14:37.355Z,1010.61
2023-01-30T09:15:37.488Z,1010.60
2023-01-30T09:16:34.299Z,1010.64
2023-01-30T09:17:35.780Z,1010.46
2023-01-30T09:18:35.059Z,1010.60
2023-01-30T09:19:42.780Z,1010.60
2023-01-30T09:20:35.419Z,1010.54
2023-01-30T09:21:40.271Z,1010.46
2023-01-30T09:22:37.269Z,1010.52
2023-01-30T09:23:34.067Z,1010.65
2023-01-30T09:24:34.620Z,1010.59
2023-01-30T09:25:35.312Z,1010.53
2023-01-30T09:26:35.897Z,1010.67
2023-01-30T09:27:35.528Z,1010.53
2023-01-30T09:28:53.860Z,1010.49
2023-01-30T09:29:40.637Z,1010.58
2023-01-30T09:30:34.730Z,1010.58
2023-01-30T09:31:34.527Z,1010.69
2023-01-30T09:32:55.233Z,1010.69
2023-01-30T09:33:35.087Z,1010.61
2023-01-30T09:34:57.497Z,1010.50
2023-01-30T09:35:35.614Z,1010.55
2023-01-30T09:36:36.937Z,1010.67
2023-01-30T09:37:42.072Z,1010.60
2023-01-30T09:38:35.197Z,1010.71
2023-01-30T09:40:44.837Z,1010.73
2023-01-30T09:41:44.705Z,1010.84
2023-01-30T09:42:44.782Z,1010.65
2023-01-30T09:43:45.291Z,1010.64
2023-01-30T09:44:50.223Z,1010.70
2023-01-30T09:46:08.529Z,1010.74
2023-01-30T09:46:52.203Z,1010.73
2023-01-30T09:48:07.873Z,1010.79
2023-01-30T09:48:46.068Z,1010.71
2023-01-30T09:49:45.543Z,1010.76
2023-01-30T09:50:46.012Z,1010.69
2023-01-30T09:51:47.350Z,1010.83
2023-01-30T09:52:46.999Z,1010.73
2023-01-30T09:53:47.500Z,1010.82
2023-01-30T09:54:49.329Z,1010.84
2023-01-30T09:55:52.199Z,1010.75
2023-01-30T09:56:47.348Z,1010.68
2023-01-30T09:57:47.277Z,1010.61
2023-01-30T09:58:47.162Z,1010.63
2023-01-30T09:59:46.642Z,1010.64
2023-01-30T10:00:48.090Z,1010.64
2023-01-30T10:01:53.994Z,1010.66
2023-01-30T10:02:46.927Z,1010.65
2023-01-30T10:03:45.267Z,1010.61
2023-01-30T10:05:00.608Z,1010.65
2023-01-30T10:05:47.502Z,1010.66
2023-01-30T10:06:47.171Z,1010.54
2023-01-30T10:07:47.798Z,1010.44
2023-01-30T10:08:45.347Z,1010.57
2023-01-30T10:09:48.214Z,1010.58
2023-01-30T10:11:04.334Z,1010.68
2023-01-30T10:11:52.136Z,1010.75
2023-01-30T10:12:53.476Z,1010.79
2023-01-30T10:13:56.709Z,1010.74
2023-01-30T10:14:52.861Z,1010.56
2023-01-30T10:15:48.218Z,1010.76
2023-01-30T10:16:50.753Z,1010.84
2023-01-30T10:17:52.619Z,1010.77
2023-01-30T10:18:53.191Z,1011.00
2023-01-30T10:20:01.078Z,1010.86
2023-01-30T10:20:55.931Z,1010.77
2023-01-30T10:22:07.612Z,1010.83
2023-01-30T10:22:46.505Z,1010.82
2023-01-30T10:23:48.785Z,1010.91
2023-01-30T10:24:51.823Z,1010.86
2023-01-30T10:26:07.202Z,1010.74
2023-01-30T10:26:47.528Z,1010.72
2023-01-30T10:27:47.226Z,1010.76
2023-01-30T10:28:49.760Z,1010.70
2023-01-30T10:29:47.532Z,1010.76
2023-01-30T10:30:45.033Z,1010.77
2023-01-30T10:31:49.451Z,1010.79
2023-01-30T10:33:09.475Z,1010.73
2023-01-30T10:33:52.331Z,1010.53
2023-01-30T10:34:48.973Z,1010.66
2023-01-30T10:35:47.360Z,1010.57
2023-01-30T10:37:07.776Z,1010.73
2023-01-30T10:38:08.277Z,1010.74
2023-01-30T10:38:47.509Z,1010.69
2023-01-30T10:40:06.461Z,1010.60
2023-01-30T10:40:44.214Z,1010.72
2023-01-30T10:41:48.622Z,1010.55
2023-01-30T10:42:48.955Z,1010.51
2023-01-30T10:43:47.134Z,1010.69
2023-01-30T10:45:06.083Z,1010.56
2023-01-30T10:46:07.253Z,1010.57
2023-01-30T10:46:47.450Z,1010.50
2023-01-30T10:48:06.246Z,1010.54
2023-01-30T10:48:59.751Z,1010.48
2023-01-30T10:49:46.590Z,1010.75
2023-01-30T10:50:49.216Z,1010.78
2023-01-30T10:51:47.086Z,1010.67
2023-01-30T10:52:46.235Z,1010.79
2023-01-30T10:53:46.887Z,1010.78
2023-01-30T10:54:44.508Z,1010.62
2023-01-30T10:55:43.963Z,1010.78
2023-01-30T10:56:44.701Z,1010.82
2023-01-30T10:57:46.883Z,1010.86
2023-01-30T10:58:50.257Z,1010.65
2023-01-30T10:59:54.204Z,1010.80
2023-01-30T11:00:45.703Z,1010.65
2023-01-30T11:02:15.604Z,1010.60
2023-01-30T11:02:51.581Z,1010.69
2023-01-30T11:03:45.176Z,1010.64
2023-01-30T11:04:45.786Z,1010.71
2023-01-30T11:05:49.016Z,1010.74
2023-01-30T11:06:46.188Z,1010.75
2023-01-30T11:07:49.956Z,1010.86
2023-01-30T11:08:50.532Z,1010.76
2023-01-30T11:09:47.510Z,1010.83
2023-01-30T11:10:51.093Z,1010.80
2023-01-30T11:11:44.323Z,1010.81
2023-01-30T11:12:45.723Z,1010.74
2023-01-30T11:14:06.903Z,1010.66
2023-01-30T11:14:45.138Z,1010.69
2023-01-30T11:15:45.335Z,1010.66
2023-01-30T11:16:50.549Z,1010.68
2023-01-30T11:17:47.112Z,1010.66
2023-01-30T11:19:44.927Z,1010.75
2023-01-30T11:20:47.960Z,1010.69
2023-01-30T11:21:45.393Z,1010.82
2023-01-30T11:23:08.700Z,1010.74
2023-01-30T11:23:45.649Z,1010.80
2023-01-30T11:24:47.224Z,1010.59
2023-01-30T11:25:47.328Z,1010.78
2023-01-30T11:26:50.175Z,1010.88
2023-01-30T11:27:45.329Z,1010.77
2023-01-30T11:28:53.403Z,1010.74
2023-01-30T11:29:44.931Z,1010.68
2023-01-30T11:30:55.310Z,1010.70
2023-01-30T11:31:45.455Z,1010.65
2023-01-30T11:32:57.823Z,1010.77
2023-01-30T11:33:45.845Z,1010.74
2023-01-30T11:34:43.522Z,1010.75
2023-01-30T11:35:46.106Z,1010.62
2023-01-30T11:36:43.507Z,1010.83
2023-01-30T11:37:48.464Z,1010.64
2023-01-30T11:38:47.893Z,1010.67
2023-01-30T11:39:45.831Z,1010.57
2023-01-30T11:40:49.917Z,1010.77
2023-01-30T11:41:43.777Z,1010.74
2023-01-30T11:42:46.469Z,1010.77
2023-01-30T11:43:43.894Z,1010.71
2023-01-30T11:44:45.372Z,1010.69
2023-01-30T11:45:45.045Z,1010.74
2023-01-30T11:46:45.052Z,1010.73
2023-01-30T11:47:45.309Z,1010.88
2023-01-30T11:49:02.300Z,1010.57
2023-01-30T11:49:47.712Z,1010.64
2023-01-30T11:50:46.858Z,1010.58
2023-01-30T11:51:44.303Z,1010.66
2023-01-30T11:52:43.186Z,1010.72
2023-01-30T11:53:43.001Z,1010.68
2023-01-30T11:54:42.991Z,1010.78
2023-01-30T11:55:52.927Z,1010.86
2023-01-30T11:56:48.869Z,1010.79
2023-01-30T11:57:43.835Z,1010.76
2023-01-30T11:58:43.762Z,1010.81
2023-01-30T11:59:43.231Z,1010.74
2023-01-30T12:00:43.548Z,1010.74
2023-01-30T12:01:43.499Z,1010.79
2023-01-30T12:02:43.673Z,1010.75
2023-01-30T12:03:47.164Z,1010.71
2023-01-30T12:04:42.863Z,1010.84
2023-01-30T12:05:42.870Z,1010.71
2023-01-30T12:06:42.875Z,1010.85
2023-01-30T12:07:46.524Z,1010.81
2023-01-30T12:08:43.079Z,1010.81
2023-01-30T12:09:42.860Z,1010.82
2023-01-30T12:10:43.631Z,1010.85
2023-01-30T12:11:42.778Z,1010.85